RYR4935 EPKK-EBCI
Flight info
| Callsign | RYR4935 |
|---|---|
| Flight time | N/A |
| Altitude | 34000 |
| Route | ADADO DCT UTEVO DCT ETUDA DCT BEKVI DCT BALTU DCT DONAD DCT OKG L984 ABERU DCT LONLI DCT MARZA DCT TEKTU DCT TESGA DCT UMUPU T880 ADMUM/N0372F240 T880 BATTY |
| Aircraft | B738/M-SDE2E3FGHIRWXY/LB1 |
Departure
| Time | 2026-05-05 15:33 |
|---|---|
| Airport | Kraków John Paul II International Airport (EPKK) |
Arrival
| Time | N/A |
|---|---|
| Airport | Brussels South Charleroi Airport (EBCI) |
| Time | Latitude | Longitude | Altitude | Speed | Heading |
|---|---|---|---|---|---|
| 2026-05-05 15:15 | 50.07336 | 19.80207 | 799 ft | 0 kts | 168° |
| 2026-05-05 15:26 | 50.07339 | 19.80206 | 799 ft | 2 kts | 168° |
| 2026-05-05 15:26 | 50.07355 | 19.80200 | 799 ft | 2 kts | 167° |
| 2026-05-05 15:27 | 50.07372 | 19.80195 | 799 ft | 2 kts | 166° |
| 2026-05-05 15:27 | 50.07388 | 19.80188 | 799 ft | 2 kts | 163° |
| 2026-05-05 15:27 | 50.07398 | 19.80183 | 799 ft | 2 kts | 159° |
| 2026-05-05 15:27 | 50.07416 | 19.80164 | 799 ft | 2 kts | 104° |
| 2026-05-05 15:28 | 50.07417 | 19.80152 | 799 ft | 1 kts | 81° |
| 2026-05-05 15:28 | 50.07416 | 19.80148 | 799 ft | 0 kts | 79° |
| 2026-05-05 15:29 | 50.07416 | 19.80149 | 799 ft | 0 kts | 79° |
| 2026-05-05 15:30 | 50.07422 | 19.80192 | 799 ft | 7 kts | 77° |
| 2026-05-05 15:30 | 50.07431 | 19.80252 | 799 ft | 10 kts | 77° |
| 2026-05-05 15:30 | 50.07452 | 19.80361 | 799 ft | 10 kts | 50° |
| 2026-05-05 15:30 | 50.07533 | 19.80407 | 799 ft | 15 kts | 16° |
| 2026-05-05 15:31 | 50.07644 | 19.80404 | 799 ft | 17 kts | 348° |
| 2026-05-05 15:31 | 50.07761 | 19.80365 | 799 ft | 17 kts | 348° |
| 2026-05-05 15:31 | 50.07840 | 19.80338 | 799 ft | 0 kts | 347° |
| 2026-05-05 15:31 | 50.07842 | 19.80337 | 799 ft | 1 kts | 347° |
| 2026-05-05 15:32 | 50.07866 | 19.80329 | 799 ft | 6 kts | 347° |
| 2026-05-05 15:32 | 50.07931 | 19.80307 | 799 ft | 12 kts | 348° |
| 2026-05-05 15:32 | 50.08014 | 19.80232 | 799 ft | 16 kts | 281° |
| 2026-05-05 15:32 | 50.07982 | 19.79980 | 800 ft | 48 kts | 258° |
| 2026-05-05 15:33 | 50.07858 | 19.79091 | 800 ft | 117 kts | 258° |
| 2026-05-05 15:33 | 50.07638 | 19.77545 | 820 ft | 171 kts | 257° |
| 2026-05-05 15:33 | 50.07389 | 19.75638 | 1426 ft | 179 kts | 257° |
| 2026-05-05 15:33 | 50.07137 | 19.73795 | 2518 ft | 166 kts | 253° |
| 2026-05-05 15:34 | 50.06890 | 19.72031 | 3465 ft | 163 kts | 254° |
| 2026-05-05 15:34 | 50.06648 | 19.70322 | 4291 ft | 163 kts | 253° |
| 2026-05-05 15:34 | 50.06383 | 19.68472 | 4697 ft | 191 kts | 254° |
| 2026-05-05 15:34 | 50.06071 | 19.66297 | 4907 ft | 219 kts | 254° |
| 2026-05-05 15:35 | 50.05723 | 19.63891 | 5313 ft | 232 kts | 254° |
| 2026-05-05 15:35 | 50.05378 | 19.61430 | 5730 ft | 230 kts | 254° |
| 2026-05-05 15:35 | 50.05036 | 19.58976 | 6005 ft | 235 kts | 253° |
| 2026-05-05 15:35 | 50.04673 | 19.56412 | 6022 ft | 252 kts | 255° |
| 2026-05-05 15:36 | 50.04287 | 19.53677 | 6591 ft | 264 kts | 255° |
| 2026-05-05 15:36 | 50.03891 | 19.50884 | 7397 ft | 265 kts | 255° |
| 2026-05-05 15:36 | 50.03494 | 19.48081 | 8316 ft | 267 kts | 255° |
| 2026-05-05 15:36 | 50.03088 | 19.45229 | 9130 ft | 271 kts | 255° |